Time;durP1;ratioP1;P1;durP2;ratioP2;P2;SDS_P1;SDS_P2;PMS_P1;PMS_P2;Temp;Humidity;BMP_temperature;BMP_pressure;BME280_temperature;BME280_humidity;BME280_pressure;Samples;Min_cycle;Max_cycle;Signal;HPM_P1;HPM_P2
2024/02/23 00:01:44;;;;;;;2.65;0.77;;;;;;;;;;5032935;28;20060;-63
2024/02/23 00:04:13;;;;;;;1.70;0.70;;;;;;;;;;5033096;28;20124;-63
2024/02/23 00:06:39;;;;;;;1.38;0.70;;;;;;;;;;5032918;28;20049;-62
2024/02/23 00:09:05;;;;;;;1.30;0.70;;;;;;;;;;5032324;28;20060;-63
2024/02/23 00:11:33;;;;;;;2.25;0.70;;;;;;;;;;5032286;28;20057;-63
2024/02/23 00:14:00;;;;;;;1.73;0.60;;;;;;;;;;5032921;28;20053;-63
2024/02/23 00:16:27;;;;;;;1.00;0.60;;;;;;;;;;5032542;28;20049;-63
2024/02/23 00:18:54;;;;;;;1.45;0.65;;;;;;;;;;5032523;28;20053;-63
2024/02/23 00:21:22;;;;;;;1.27;0.73;;;;;;;;;;5032484;28;20049;-63
2024/02/23 00:23:48;;;;;;;1.42;0.70;;;;;;;;;;5032597;28;20049;-63
2024/02/23 00:26:15;;;;;;;1.45;0.60;;;;;;;;;;5032505;28;20046;-63
2024/02/23 00:28:42;;;;;;;0.98;0.52;;;;;;;;;;5032597;28;20064;-63
2024/02/23 00:31:09;;;;;;;1.48;0.70;;;;;;;;;;5032427;28;20403;-63
2024/02/23 00:33:37;;;;;;;0.90;0.50;;;;;;;;;;5032632;28;20068;-63
2024/02/23 00:36:04;;;;;;;0.70;0.50;;;;;;;;;;5032425;28;20508;-62
2024/02/23 00:38:32;;;;;;;1.17;0.60;;;;;;;;;;5032247;28;20419;-62
2024/02/23 00:40:59;;;;;;;1.90;0.60;;;;;;;;;;5031984;28;20053;-63
2024/02/23 00:43:26;;;;;;;2.28;0.70;;;;;;;;;;5032098;28;20053;-63
2024/02/23 00:45:53;;;;;;;1.52;0.60;;;;;;;;;;5031857;28;20148;-63
2024/02/23 00:48:19;;;;;;;1.25;0.80;;;;;;;;;;5032128;28;20053;-62
2024/02/23 00:50:46;;;;;;;1.40;0.70;;;;;;;;;;5031726;28;20049;-62
2024/02/23 00:53:13;;;;;;;1.38;0.77;;;;;;;;;;5031864;28;20050;-63
2024/02/23 00:55:41;;;;;;;1.25;0.68;;;;;;;;;;5032020;28;20073;-63
2024/02/23 00:58:08;;;;;;;1.10;0.63;;;;;;;;;;5032045;28;20045;-63
2024/02/23 01:00:35;;;;;;;1.27;0.85;;;;;;;;;;5031918;28;20053;-63
2024/02/23 01:03:01;;;;;;;1.15;0.75;;;;;;;;;;5032424;28;20060;-63
2024/02/23 01:05:28;;;;;;;1.73;0.75;;;;;;;;;;5032010;28;20064;-63
2024/02/23 01:07:55;;;;;;;1.73;0.90;;;;;;;;;;5032271;28;20056;-63
2024/02/23 01:10:22;;;;;;;1.38;0.90;;;;;;;;;;5032291;28;20049;-63
2024/02/23 01:12:50;;;;;;;1.27;0.77;;;;;;;;;;5032412;28;20057;-63
2024/02/23 01:15:17;;;;;;;1.80;0.80;;;;;;;;;;5032076;28;20129;-63
2024/02/23 01:17:44;;;;;;;1.52;0.80;;;;;;;;;;5032049;28;20479;-63
2024/02/23 01:20:11;;;;;;;3.03;0.90;;;;;;;;;;5032782;28;20053;-63
2024/02/23 01:22:38;;;;;;;2.15;0.80;;;;;;;;;;5036161;28;20053;-63
2024/02/23 01:25:05;;;;;;;4.75;1.10;;;;;;;;;;5036079;28;20057;-63
2024/02/23 01:27:32;;;;;;;3.05;1.15;;;;;;;;;;5036047;28;20049;-63
2024/02/23 01:30:00;;;;;;;4.32;1.20;;;;;;;;;;5035838;28;20053;-64
2024/02/23 01:32:28;;;;;;;2.67;0.98;;;;;;;;;;5035639;28;20057;-63
2024/02/23 01:34:55;;;;;;;3.22;1.10;;;;;;;;;;5035562;28;20076;-64
2024/02/23 01:37:21;;;;;;;1.85;1.10;;;;;;;;;;5035812;28;20053;-64
2024/02/23 01:39:48;;;;;;;2.47;1.25;;;;;;;;;;5035355;28;20058;-63
2024/02/23 01:42:15;;;;;;;3.95;1.60;;;;;;;;;;5035537;28;20056;-63
2024/02/23 01:44:42;;;;;;;3.47;1.17;;;;;;;;;;5035686;28;20057;-63
2024/02/23 01:47:10;;;;;;;1.58;1.10;;;;;;;;;;5035416;28;20517;-63
2024/02/23 01:49:37;;;;;;;3.60;1.30;;;;;;;;;;5035526;28;20053;-63
2024/02/23 01:52:04;;;;;;;1.90;1.20;;;;;;;;;;5035416;28;20091;-63
2024/02/23 01:54:32;;;;;;;2.55;1.35;;;;;;;;;;5035397;28;20053;-63
2024/02/23 01:56:59;;;;;;;3.20;1.30;;;;;;;;;;5035322;28;20086;-63
2024/02/23 01:59:26;;;;;;;2.35;1.20;;;;;;;;;;5035370;28;20053;-63
2024/02/23 02:01:53;;;;;;;3.42;1.20;;;;;;;;;;5035112;28;20056;-63
2024/02/23 02:04:21;;;;;;;1.98;1.10;;;;;;;;;;5034949;28;20057;-63
2024/02/23 02:06:48;;;;;;;2.15;1.30;;;;;;;;;;5032851;28;20049;-63
2024/02/23 02:09:15;;;;;;;5.30;1.40;;;;;;;;;;5034450;28;20054;-63
2024/02/23 02:11:51;;;;;;;2.75;1.27;;;;;;;;;;5034751;28;20053;-62
2024/02/23 02:14:18;;;;;;;2.70;1.27;;;;;;;;;;5035359;28;20056;-63
2024/02/23 02:16:44;;;;;;;4.72;1.30;;;;;;;;;;5034876;28;20068;-62
2024/02/23 02:19:11;;;;;;;2.55;1.25;;;;;;;;;;5035075;28;20060;-63
2024/02/23 02:21:40;;;;;;;2.47;1.17;;;;;;;;;;5034780;28;20057;-63
2024/02/23 02:24:07;;;;;;;3.55;1.15;;;;;;;;;;5035209;28;20053;-63
2024/02/23 02:26:35;;;;;;;3.40;1.40;;;;;;;;;;5034770;28;20057;-62
2024/02/23 02:29:03;;;;;;;3.55;1.25;;;;;;;;;;5034896;28;20049;-62
2024/02/23 02:31:36;;;;;;;2.85;1.00;;;;;;;;;;5034520;28;20064;-62
2024/02/23 02:34:03;;;;;;;3.78;1.20;;;;;;;;;;5034567;28;20061;-63
2024/02/23 02:36:30;;;;;;;6.20;1.60;;;;;;;;;;5034621;28;20064;-63
2024/02/23 02:38:58;;;;;;;4.55;1.45;;;;;;;;;;5034362;28;20045;-63
2024/02/23 02:41:28;;;;;;;3.58;1.15;;;;;;;;;;5034461;28;20511;-63
2024/02/23 02:43:55;;;;;;;4.70;1.50;;;;;;;;;;5034511;28;20061;-63
2024/02/23 02:46:22;;;;;;;4.13;1.52;;;;;;;;;;5047523;28;20072;-63
2024/02/23 02:48:48;;;;;;;3.20;1.33;;;;;;;;;;5054329;28;20052;-63
2024/02/23 02:51:15;;;;;;;4.15;1.10;;;;;;;;;;5054015;28;20056;-63
2024/02/23 02:53:42;;;;;;;4.75;1.33;;;;;;;;;;5054325;28;20063;-63
2024/02/23 02:56:10;;;;;;;4.57;1.20;;;;;;;;;;5053876;28;20056;-63
2024/02/23 02:58:37;;;;;;;3.85;1.25;;;;;;;;;;5054071;28;20049;-63
2024/02/23 03:01:04;;;;;;;3.70;1.45;;;;;;;;;;5053861;28;20061;-63
2024/02/23 03:03:30;;;;;;;5.18;1.33;;;;;;;;;;5054127;28;20057;-62
2024/02/23 03:05:56;;;;;;;6.97;1.58;;;;;;;;;;5053615;28;20553;-62
2024/02/23 03:08:23;;;;;;;7.07;1.70;;;;;;;;;;5053615;28;20049;-62
2024/02/23 03:10:50;;;;;;;3.92;1.48;;;;;;;;;;5053616;28;20135;-63
2024/02/23 03:13:18;;;;;;;5.20;2.28;;;;;;;;;;5053890;28;20053;-62
2024/02/23 03:15:45;;;;;;;3.83;1.35;;;;;;;;;;5053746;28;20068;-62
2024/02/23 03:18:14;;;;;;;6.15;1.80;;;;;;;;;;5053800;28;20067;-62
2024/02/23 03:20:41;;;;;;;5.82;1.88;;;;;;;;;;5053494;28;20056;-62
2024/02/23 03:23:08;;;;;;;4.90;1.83;;;;;;;;;;5053348;28;20053;-63
2024/02/23 03:25:35;;;;;;;4.03;1.50;;;;;;;;;;5053692;28;20552;-63
2024/02/23 03:28:01;;;;;;;4.18;2.03;;;;;;;;;;5053689;28;20051;-63
2024/02/23 03:30:30;;;;;;;6.10;1.80;;;;;;;;;;5053210;28;20064;-62
2024/02/23 03:32:56;;;;;;;4.75;2.03;;;;;;;;;;5053647;28;20395;-63
2024/02/23 03:35:23;;;;;;;4.22;1.73;;;;;;;;;;5053450;28;20057;-63
2024/02/23 03:37:50;;;;;;;3.90;1.73;;;;;;;;;;5053279;28;20112;-63
2024/02/23 03:40:18;;;;;;;4.55;1.40;;;;;;;;;;5053019;28;20495;-63
2024/02/23 03:42:44;;;;;;;6.47;1.77;;;;;;;;;;5052925;28;20049;-63
2024/02/23 03:45:11;;;;;;;5.30;1.70;;;;;;;;;;5052905;28;20064;-62
2024/02/23 03:47:40;;;;;;;5.03;1.75;;;;;;;;;;5053071;28;20045;-63
2024/02/23 03:50:07;;;;;;;3.03;1.60;;;;;;;;;;5053003;28;20506;-62
2024/02/23 03:52:34;;;;;;;4.22;1.95;;;;;;;;;;5053108;28;20059;-63
2024/02/23 03:55:01;;;;;;;6.63;1.85;;;;;;;;;;5052785;28;20523;-62
2024/02/23 03:57:28;;;;;;;3.75;1.85;;;;;;;;;;5052539;28;20053;-62
2024/02/23 03:59:55;;;;;;;6.90;2.13;;;;;;;;;;5052178;28;20053;-63
2024/02/23 04:02:22;;;;;;;2.53;1.33;;;;;;;;;;5052559;28;20403;-63
2024/02/23 04:04:50;;;;;;;4.28;1.58;;;;;;;;;;5052353;28;20049;-63
2024/02/23 04:07:17;;;;;;;4.63;1.98;;;;;;;;;;5052840;28;20068;-63
2024/02/23 04:09:43;;;;;;;4.72;1.50;;;;;;;;;;5051942;28;20055;-63
2024/02/23 04:12:10;;;;;;;5.05;1.58;;;;;;;;;;5052445;28;20057;-63
2024/02/23 04:14:37;;;;;;;4.97;1.63;;;;;;;;;;5052459;28;20060;-62
2024/02/23 04:17:04;;;;;;;5.32;1.42;;;;;;;;;;5052177;28;20423;-63
2024/02/23 04:19:31;;;;;;;3.53;1.00;;;;;;;;;;5052105;28;20403;-63
2024/02/23 04:21:59;;;;;;;4.28;1.40;;;;;;;;;;5052434;28;20063;-63
2024/02/23 04:24:26;;;;;;;6.25;1.48;;;;;;;;;;5052472;28;20057;-63
2024/02/23 04:26:53;;;;;;;5.28;1.23;;;;;;;;;;5052519;28;20053;-63
2024/02/23 04:29:20;;;;;;;3.33;1.00;;;;;;;;;;5052023;28;20044;-63
2024/02/23 04:31:46;;;;;;;3.85;1.10;;;;;;;;;;5052233;28;20407;-63
2024/02/23 04:34:13;;;;;;;4.47;1.25;;;;;;;;;;5052327;28;20060;-63
2024/02/23 04:36:40;;;;;;;2.47;1.00;;;;;;;;;;5052324;28;20506;-62
2024/02/23 04:39:08;;;;;;;4.53;1.08;;;;;;;;;;5051891;28;20064;-63
2024/02/23 04:41:35;;;;;;;4.85;1.25;;;;;;;;;;5051940;28;20056;-63
2024/02/23 04:44:01;;;;;;;3.17;1.25;;;;;;;;;;5051767;28;20048;-63
2024/02/23 04:46:28;;;;;;;2.33;0.85;;;;;;;;;;5051605;28;20057;-63
2024/02/23 04:48:55;;;;;;;7.10;1.30;;;;;;;;;;5051600;28;20048;-62
2024/02/23 04:51:23;;;;;;;4.70;1.25;;;;;;;;;;5051562;28;20057;-62
2024/02/23 04:53:49;;;;;;;3.45;1.00;;;;;;;;;;5051515;28;20526;-63
2024/02/23 04:56:18;;;;;;;3.88;1.08;;;;;;;;;;5050579;28;20072;-63
2024/02/23 04:58:44;;;;;;;3.38;0.93;;;;;;;;;;5051965;28;20053;-63
2024/02/23 05:01:11;;;;;;;4.20;1.30;;;;;;;;;;5051580;28;20059;-62
2024/02/23 05:03:38;;;;;;;4.85;1.00;;;;;;;;;;5051721;28;20064;-63
2024/02/23 05:06:05;;;;;;;4.60;1.20;;;;;;;;;;5051630;28;20064;-63
2024/02/23 05:08:32;;;;;;;5.13;1.15;;;;;;;;;;5051664;28;20048;-62
2024/02/23 05:10:58;;;;;;;3.78;1.13;;;;;;;;;;5051654;28;20057;-63
2024/02/23 05:13:27;;;;;;;2.92;1.10;;;;;;;;;;5051958;28;20511;-63
2024/02/23 05:15:56;;;;;;;5.13;1.17;;;;;;;;;;5051615;28;20053;-62
2024/02/23 05:18:23;;;;;;;3.10;1.10;;;;;;;;;;5051505;28;20048;-63
2024/02/23 05:20:50;;;;;;;3.35;1.00;;;;;;;;;;5051506;28;20049;-62
2024/02/23 05:23:17;;;;;;;4.65;1.40;;;;;;;;;;5052050;28;20229;-62
2024/02/23 05:25:44;;;;;;;7.60;1.20;;;;;;;;;;5051732;28;20052;-62
2024/02/23 05:28:10;;;;;;;4.82;1.25;;;;;;;;;;5051773;28;20049;-62
2024/02/23 05:30:38;;;;;;;4.03;0.93;;;;;;;;;;5051454;28;20057;-62
2024/02/23 05:33:05;;;;;;;3.45;0.90;;;;;;;;;;5052045;28;20053;-62
2024/02/23 05:35:32;;;;;;;3.95;0.90;;;;;;;;;;5051333;28;20053;-62
2024/02/23 05:37:59;;;;;;;2.30;0.85;;;;;;;;;;5051086;28;20053;-62
2024/02/23 05:40:26;;;;;;;5.53;1.13;;;;;;;;;;5051408;28;20060;-62
2024/02/23 05:42:52;;;;;;;3.30;1.08;;;;;;;;;;5051704;28;20380;-62
2024/02/23 05:45:19;;;;;;;4.53;1.17;;;;;;;;;;5051321;28;20060;-62
2024/02/23 05:47:48;;;;;;;4.13;0.90;;;;;;;;;;5051695;28;20064;-62
2024/02/23 05:50:15;;;;;;;4.53;0.90;;;;;;;;;;5051554;28;20060;-62
2024/02/23 05:52:41;;;;;;;3.42;0.82;;;;;;;;;;5051634;28;20057;-62
2024/02/23 05:55:09;;;;;;;10.18;1.90;;;;;;;;;;5051354;28;20434;-61
2024/02/23 05:57:35;;;;;;;3.53;1.13;;;;;;;;;;5051759;28;20426;-63
2024/02/23 06:00:02;;;;;;;3.65;1.00;;;;;;;;;;5051189;28;20053;-63
2024/02/23 06:02:29;;;;;;;2.92;0.90;;;;;;;;;;5051630;28;20506;-63
2024/02/23 06:04:57;;;;;;;6.53;1.67;;;;;;;;;;5051526;28;20503;-63
2024/02/23 06:07:28;;;;;;;4.82;1.20;;;;;;;;;;5053974;28;20056;-63
2024/02/23 06:09:55;;;;;;;3.95;1.00;;;;;;;;;;5054762;28;20064;-63
2024/02/23 06:12:22;;;;;;;4.80;1.00;;;;;;;;;;5055049;28;20059;-63
2024/02/23 06:14:49;;;;;;;4.80;0.95;;;;;;;;;;5054958;28;20072;-63
2024/02/23 06:17:16;;;;;;;5.03;1.13;;;;;;;;;;5054960;28;20060;-63
2024/02/23 06:19:43;;;;;;;4.13;1.13;;;;;;;;;;5054750;28;20056;-63
2024/02/23 06:22:12;;;;;;;3.90;1.30;;;;;;;;;;5054816;28;20049;-62
2024/02/23 06:24:38;;;;;;;3.77;1.20;;;;;;;;;;5054556;28;20061;-63
2024/02/23 06:27:05;;;;;;;2.83;0.90;;;;;;;;;;5054877;28;20498;-62
2024/02/23 06:29:32;;;;;;;2.35;0.93;;;;;;;;;;5054921;28;20132;-63
2024/02/23 06:32:01;;;;;;;2.80;0.70;;;;;;;;;;5054926;28;20119;-63
2024/02/23 06:34:28;;;;;;;4.53;0.80;;;;;;;;;;5054252;28;20053;-63
2024/02/23 06:36:54;;;;;;;4.38;1.05;;;;;;;;;;5054447;28;20057;-62
2024/02/23 06:39:22;;;;;;;5.57;1.17;;;;;;;;;;5054373;28;20049;-63
2024/02/23 06:41:49;;;;;;;3.30;0.85;;;;;;;;;;5054649;28;20068;-63
2024/02/23 06:44:16;;;;;;;4.28;1.10;;;;;;;;;;5054223;28;20072;-63
2024/02/23 06:46:44;;;;;;;4.93;1.20;;;;;;;;;;5053719;28;20419;-62
2024/02/23 06:49:11;;;;;;;3.60;0.82;;;;;;;;;;5054190;28;20052;-62
2024/02/23 06:51:38;;;;;;;5.90;1.35;;;;;;;;;;5054331;28;20380;-62
2024/02/23 06:54:04;;;;;;;3.42;1.00;;;;;;;;;;5054067;28;20053;-62
2024/02/23 06:56:33;;;;;;;3.28;1.00;;;;;;;;;;5053874;28;20053;-62
2024/02/23 06:59:00;;;;;;;4.13;1.40;;;;;;;;;;5053376;28;20045;-62
2024/02/23 07:01:27;;;;;;;5.05;1.17;;;;;;;;;;5053751;28;20052;-62
2024/02/23 07:03:54;;;;;;;4.10;1.25;;;;;;;;;;5053957;28;20053;-61
2024/02/23 07:06:21;;;;;;;2.83;1.15;;;;;;;;;;5053949;28;20053;-62
2024/02/23 07:08:47;;;;;;;5.50;1.27;;;;;;;;;;5053804;28;20044;-62
2024/02/23 07:11:14;;;;;;;4.05;1.00;;;;;;;;;;5053849;28;20049;-62
2024/02/23 07:13:44;;;;;;;3.13;1.10;;;;;;;;;;5053783;28;20049;-62
2024/02/23 07:16:11;;;;;;;3.63;1.08;;;;;;;;;;5054065;28;20480;-62
2024/02/23 07:18:38;;;;;;;3.72;1.20;;;;;;;;;;5052348;28;20053;-62
2024/02/23 07:21:05;;;;;;;3.10;1.17;;;;;;;;;;5053517;28;20059;-62
2024/02/23 07:23:32;;;;;;;4.78;1.27;;;;;;;;;;5053612;28;20060;-62
2024/02/23 07:25:59;;;;;;;3.58;0.77;;;;;;;;;;5053497;28;20519;-62
2024/02/23 07:28:25;;;;;;;2.53;0.73;;;;;;;;;;5053333;28;20053;-62
2024/02/23 07:30:53;;;;;;;3.78;1.13;;;;;;;;;;5053230;28;20064;-62
2024/02/23 07:33:20;;;;;;;3.22;1.23;;;;;;;;;;5053472;28;20061;-62
2024/02/23 07:35:47;;;;;;;2.35;1.10;;;;;;;;;;5053227;28;20467;-62
2024/02/23 07:38:14;;;;;;;3.67;0.95;;;;;;;;;;5053223;28;20430;-62
2024/02/23 07:40:41;;;;;;;3.33;1.00;;;;;;;;;;5053056;28;20049;-62
2024/02/23 07:43:07;;;;;;;3.63;1.00;;;;;;;;;;5052793;28;20064;-62
2024/02/23 07:45:35;;;;;;;3.60;1.08;;;;;;;;;;5052574;28;20053;-59
2024/02/23 07:48:03;;;;;;;3.88;1.17;;;;;;;;;;5053220;28;20488;-61
2024/02/23 07:50:30;;;;;;;2.55;0.90;;;;;;;;;;5053122;28;20356;-61
2024/02/23 07:52:56;;;;;;;3.75;0.93;;;;;;;;;;5053285;28;20053;-62
2024/02/23 07:55:23;;;;;;;3.17;1.15;;;;;;;;;;5052469;28;20053;-60
2024/02/23 07:57:50;;;;;;;4.63;1.10;;;;;;;;;;5052723;28;20053;-60
2024/02/23 08:00:17;;;;;;;2.75;1.00;;;;;;;;;;5052013;28;20053;-60
2024/02/23 08:02:44;;;;;;;3.08;1.15;;;;;;;;;;5052222;28;20053;-60
2024/02/23 08:05:12;;;;;;;4.07;1.17;;;;;;;;;;5052308;28;20080;-60
2024/02/23 08:07:39;;;;;;;2.28;1.10;;;;;;;;;;5052001;28;20094;-60
2024/02/23 08:10:07;;;;;;;3.20;1.10;;;;;;;;;;5052002;28;20059;-60
2024/02/23 08:12:33;;;;;;;2.92;1.10;;;;;;;;;;5052529;28;20057;-60
2024/02/23 08:15:00;;;;;;;4.35;1.10;;;;;;;;;;5052536;28;20060;-61
2024/02/23 08:17:27;;;;;;;4.65;1.13;;;;;;;;;;5052739;28;20053;-60
2024/02/23 08:19:54;;;;;;;3.97;1.27;;;;;;;;;;5052178;28;20475;-61
2024/02/23 08:22:23;;;;;;;2.60;1.08;;;;;;;;;;5052605;28;20049;-60
2024/02/23 08:24:50;;;;;;;3.45;1.05;;;;;;;;;;5052436;28;20052;-60
2024/02/23 08:27:16;;;;;;;4.82;1.10;;;;;;;;;;5052600;28;20052;-60
2024/02/23 08:29:43;;;;;;;3.90;0.90;;;;;;;;;;5052217;28;20060;-60
2024/02/23 08:32:10;;;;;;;3.78;1.25;;;;;;;;;;5052421;28;20061;-60
2024/02/23 08:34:37;;;;;;;1.98;0.80;;;;;;;;;;5051992;28;20053;-61
2024/02/23 08:37:04;;;;;;;3.30;1.10;;;;;;;;;;5052034;28;20053;-61
2024/02/23 08:39:34;;;;;;;3.08;1.00;;;;;;;;;;5052174;28;20057;-60
2024/02/23 08:42:00;;;;;;;3.40;1.13;;;;;;;;;;5052035;28;20053;-61
2024/02/23 08:44:27;;;;;;;5.25;1.23;;;;;;;;;;5052044;28;20060;-61
2024/02/23 08:46:54;;;;;;;2.70;1.05;;;;;;;;;;5051874;28;20083;-60
2024/02/23 08:49:21;;;;;;;3.47;1.02;;;;;;;;;;5051821;28;20079;-61
2024/02/23 08:51:48;;;;;;;2.92;1.20;;;;;;;;;;5052194;28;20060;-61
2024/02/23 08:54:14;;;;;;;4.05;1.25;;;;;;;;;;5051821;28;20056;-61
2024/02/23 08:56:43;;;;;;;2.70;1.02;;;;;;;;;;5051959;28;20057;-60
2024/02/23 08:59:10;;;;;;;4.00;1.13;;;;;;;;;;5052266;28;20455;-61
2024/02/23 09:01:37;;;;;;;3.75;1.17;;;;;;;;;;5051750;28;20056;-61
2024/02/23 09:04:04;;;;;;;4.28;1.13;;;;;;;;;;5052073;28;20057;-61
2024/02/23 09:06:31;;;;;;;3.35;1.15;;;;;;;;;;5051848;28;20061;-60
2024/02/23 09:08:58;;;;;;;5.13;1.15;;;;;;;;;;5051670;28;20052;-60
2024/02/23 09:11:24;;;;;;;3.78;1.63;;;;;;;;;;5051378;28;20049;-61
2024/02/23 09:13:52;;;;;;;4.80;1.15;;;;;;;;;;5051212;28;20507;-62
2024/02/23 09:16:22;;;;;;;3.88;1.25;;;;;;;;;;5051626;28;20053;-61
2024/02/23 09:18:49;;;;;;;3.33;1.00;;;;;;;;;;5051297;28;20049;-61
2024/02/23 09:21:15;;;;;;;4.53;1.15;;;;;;;;;;5051859;28;20048;-62
2024/02/23 09:23:42;;;;;;;4.43;1.13;;;;;;;;;;5051813;28;20052;-61
2024/02/23 09:26:09;;;;;;;5.45;1.10;;;;;;;;;;5051783;28;20068;-61
2024/02/23 09:28:36;;;;;;;3.22;1.10;;;;;;;;;;5051707;28;20053;-60
2024/02/23 09:31:05;;;;;;;5.93;1.25;;;;;;;;;;5051626;28;20144;-61
2024/02/23 09:33:31;;;;;;;4.55;1.20;;;;;;;;;;5051457;28;20049;-61
2024/02/23 09:35:58;;;;;;;7.47;1.20;;;;;;;;;;5051724;28;20057;-61
2024/02/23 09:38:25;;;;;;;2.78;1.30;;;;;;;;;;5051743;28;20488;-64
2024/02/23 09:40:52;;;;;;;3.72;1.10;;;;;;;;;;5051368;28;20053;-62
2024/02/23 09:43:21;;;;;;;3.55;1.10;;;;;;;;;;5055133;28;20057;-61
2024/02/23 09:45:51;;;;;;;2.80;0.90;;;;;;;;;;5055003;28;20064;-61
2024/02/23 09:48:18;;;;;;;;;;;;;;;;;;5055600;28;20056;-61
2024/02/23 09:50:48;;;;;;;3.78;1.20;;;;;;;;;;5055438;28;19921;-61
2024/02/23 09:53:15;;;;;;;3.50;1.10;;;;;;;;;;5055255;28;20060;-62
2024/02/23 09:55:43;;;;;;;4.22;1.10;;;;;;;;;;5055398;28;20060;-61
2024/02/23 09:58:11;;;;;;;2.70;0.95;;;;;;;;;;5055056;28;20408;-61
2024/02/23 10:00:39;;;;;;;3.03;1.20;;;;;;;;;;5054618;28;20492;-61
2024/02/23 10:03:06;;;;;;;5.00;1.13;;;;;;;;;;5054919;28;20049;-61
2024/02/23 10:05:33;;;;;;;2.92;1.10;;;;;;;;;;5054565;28;20049;-61
2024/02/23 10:08:02;;;;;;;3.70;1.17;;;;;;;;;;5055108;28;20048;-60
2024/02/23 10:10:31;;;;;;;2.72;0.95;;;;;;;;;;5055205;28;20052;-61
2024/02/23 10:12:58;;;;;;;2.95;1.13;;;;;;;;;;5054734;28;20447;-61
2024/02/23 10:15:25;;;;;;;4.25;1.02;;;;;;;;;;5055176;28;20376;-61
2024/02/23 10:17:54;;;;;;;2.67;1.13;;;;;;;;;;5054982;28;20056;-61
2024/02/23 10:20:20;;;;;;;3.38;0.95;;;;;;;;;;5054648;28;20060;-61
2024/02/23 10:22:48;;;;;;;5.80;1.33;;;;;;;;;;5054522;28;20068;-61
2024/02/23 10:25:17;;;;;;;3.58;1.10;;;;;;;;;;5054514;28;20448;-60
2024/02/23 10:27:43;;;;;;;2.80;0.95;;;;;;;;;;5054633;28;20057;-61
2024/02/23 10:30:11;;;;;;;4.00;1.42;;;;;;;;;;5054013;28;20167;-61
2024/02/23 10:32:39;;;;;;;2.97;1.10;;;;;;;;;;5054867;28;20048;-61
2024/02/23 10:35:08;;;;;;;3.30;1.23;;;;;;;;;;5054337;28;20053;-61
2024/02/23 10:37:35;;;;;;;3.40;1.02;;;;;;;;;;5054518;28;20411;-60
2024/02/23 10:40:03;;;;;;;4.05;1.20;;;;;;;;;;5054140;28;20053;-60
2024/02/23 10:42:34;;;;;;;4.00;1.00;;;;;;;;;;5054452;28;20399;-60
2024/02/23 10:45:03;;;;;;;3.22;0.90;;;;;;;;;;5054115;28;20076;-61
2024/02/23 10:47:31;;;;;;;3.70;1.20;;;;;;;;;;5054361;28;20060;-61
2024/02/23 10:50:00;;;;;;;3.60;1.17;;;;;;;;;;5054220;28;20049;-60
2024/02/23 10:52:27;;;;;;;3.33;1.10;;;;;;;;;;5054188;28;20056;-61
2024/02/23 10:54:55;;;;;;;2.95;1.10;;;;;;;;;;5054259;28;20053;-61
2024/02/23 10:57:22;;;;;;;3.67;1.10;;;;;;;;;;5054359;28;20049;-61
2024/02/23 10:59:50;;;;;;;3.63;1.00;;;;;;;;;;5054053;28;20404;-61
2024/02/23 11:02:18;;;;;;;5.20;1.50;;;;;;;;;;5053964;28;20049;-60
2024/02/23 11:04:50;;;;;;;3.38;1.20;;;;;;;;;;5054142;28;20060;-60
2024/02/23 11:07:17;;;;;;;4.13;0.90;;;;;;;;;;5054241;28;20368;-61
2024/02/23 11:09:44;;;;;;;3.08;0.93;;;;;;;;;;5053569;28;20052;-61
2024/02/23 11:12:10;;;;;;;3.65;1.02;;;;;;;;;;5054030;28;20060;-61
2024/02/23 11:14:38;;;;;;;3.42;1.00;;;;;;;;;;5053842;28;20057;-61
2024/02/23 11:17:06;;;;;;;3.28;0.98;;;;;;;;;;5053819;28;20060;-61
2024/02/23 11:19:33;;;;;;;4.15;1.40;;;;;;;;;;5053751;28;20056;-61
2024/02/23 11:22:00;;;;;;;3.05;1.17;;;;;;;;;;5053689;28;20056;-61
2024/02/23 11:24:29;;;;;;;2.75;1.08;;;;;;;;;;5053531;28;20064;-61
2024/02/23 11:26:57;;;;;;;6.32;1.00;;;;;;;;;;5053577;28;20053;-61
2024/02/23 11:29:26;;;;;;;3.10;0.90;;;;;;;;;;5053721;28;20412;-61
2024/02/23 11:31:56;;;;;;;4.28;1.10;;;;;;;;;;5053609;28;20055;-61
2024/02/23 11:34:25;;;;;;;4.18;1.13;;;;;;;;;;5053221;28;20057;-61
2024/02/23 11:36:52;;;;;;;3.47;1.20;;;;;;;;;;5053468;28;20061;-61
2024/02/23 11:39:20;;;;;;;5.10;1.48;;;;;;;;;;5053164;28;20053;-61
2024/02/23 11:41:48;;;;;;;4.13;0.95;;;;;;;;;;5053076;28;20056;-61
2024/02/23 11:44:17;;;;;;;3.92;1.25;;;;;;;;;;5052762;28;20069;-61
2024/02/23 11:46:44;;;;;;;3.70;1.02;;;;;;;;;;5052857;28;20512;-61
2024/02/23 11:49:11;;;;;;;2.95;1.00;;;;;;;;;;5053112;28;20483;-61
2024/02/23 11:51:39;;;;;;;4.20;1.20;;;;;;;;;;5052762;28;20055;-61
2024/02/23 11:54:06;;;;;;;5.70;1.05;;;;;;;;;;5053109;28;20338;-61
2024/02/23 11:56:33;;;;;;;3.60;1.20;;;;;;;;;;5052968;28;20057;-61
2024/02/23 11:59:00;;;;;;;3.28;1.00;;;;;;;;;;5052958;28;20059;-61
2024/02/23 12:01:29;;;;;;;2.85;1.00;;;;;;;;;;5052568;28;20045;-61
2024/02/23 12:03:56;;;;;;;3.10;1.10;;;;;;;;;;5052165;28;20076;-61
2024/02/23 12:06:23;;;;;;;3.95;1.23;;;;;;;;;;5052913;28;20061;-61
2024/02/23 12:08:52;;;;;;;3.45;1.25;;;;;;;;;;5052665;28;20052;-61
2024/02/23 12:11:20;;;;;;;3.47;1.10;;;;;;;;;;5052650;28;20502;-60
2024/02/23 12:13:46;;;;;;;3.47;1.15;;;;;;;;;;5052686;28;20057;-60
2024/02/23 12:16:15;;;;;;;2.40;1.15;;;;;;;;;;5052227;28;20080;-61
2024/02/23 12:18:41;;;;;;;3.63;1.02;;;;;;;;;;5052762;28;20072;-61
2024/02/23 12:21:09;;;;;;;3.50;1.08;;;;;;;;;;5052142;28;20059;-61
2024/02/23 12:23:40;;;;;;;3.15;1.00;;;;;;;;;;5052363;28;20053;-61
2024/02/23 12:26:08;;;;;;;2.90;0.73;;;;;;;;;;5052704;28;20057;-60
2024/02/23 12:28:35;;;;;;;3.08;0.93;;;;;;;;;;5052550;28;20067;-60
2024/02/23 12:31:02;;;;;;;3.13;1.10;;;;;;;;;;5052142;28;20076;-61
2024/02/23 12:33:30;;;;;;;4.00;1.00;;;;;;;;;;5052531;28;20057;-61
2024/02/23 12:35:57;;;;;;;2.72;0.90;;;;;;;;;;5052559;28;20057;-61
2024/02/23 12:38:24;;;;;;;3.85;0.93;;;;;;;;;;5052426;28;20052;-61
2024/02/23 12:40:51;;;;;;;1.40;0.70;;;;;;;;;;5051851;28;20063;-61
2024/02/23 12:43:21;;;;;;;3.92;1.10;;;;;;;;;;5052193;28;20059;-60
2024/02/23 12:45:49;;;;;;;1.90;0.70;;;;;;;;;;5051648;28;20057;-60
2024/02/23 12:48:16;;;;;;;2.58;0.63;;;;;;;;;;5052092;28;20487;-60
2024/02/23 12:50:44;;;;;;;3.53;0.82;;;;;;;;;;5051967;28;20049;-61
2024/02/23 12:53:12;;;;;;;4.57;0.82;;;;;;;;;;5052154;28;20502;-61
2024/02/23 12:55:39;;;;;;;2.40;0.80;;;;;;;;;;5052156;28;20053;-61
2024/02/23 12:58:06;;;;;;;2.08;0.65;;;;;;;;;;5052182;28;20052;-60
2024/02/23 13:00:35;;;;;;;2.63;0.80;;;;;;;;;;5051905;28;20079;-60
2024/02/23 13:03:02;;;;;;;1.70;0.70;;;;;;;;;;5052060;28;20060;-61
2024/02/23 13:05:29;;;;;;;3.17;0.80;;;;;;;;;;5051904;28;20052;-60
2024/02/23 13:07:56;;;;;;;1.95;0.65;;;;;;;;;;5051920;28;20076;-61
2024/02/23 13:10:22;;;;;;;2.08;0.70;;;;;;;;;;5051919;28;20053;-61
2024/02/23 13:12:49;;;;;;;1.60;0.70;;;;;;;;;;5051996;28;20048;-60
2024/02/23 13:15:16;;;;;;;3.10;0.88;;;;;;;;;;5051614;28;20056;-61
2024/02/23 13:17:44;;;;;;;2.85;1.00;;;;;;;;;;5055323;28;20049;-60
2024/02/23 13:20:13;;;;;;;3.92;1.10;;;;;;;;;;5056045;28;20060;-61
2024/02/23 13:22:40;;;;;;;2.67;0.90;;;;;;;;;;5056150;28;20053;-61
2024/02/23 13:25:07;;;;;;;2.60;0.80;;;;;;;;;;5055588;28;20127;-61
2024/02/23 13:27:34;;;;;;;2.00;0.50;;;;;;;;;;5055196;28;20056;-61
2024/02/23 13:30:00;;;;;;;2.42;0.73;;;;;;;;;;5055485;28;20056;-61
2024/02/23 13:32:27;;;;;;;2.90;1.00;;;;;;;;;;5055941;28;20056;-60
2024/02/23 13:34:55;;;;;;;1.90;0.80;;;;;;;;;;5055661;28;20146;-61
2024/02/23 13:37:22;;;;;;;4.47;0.95;;;;;;;;;;5055702;28;20052;-61
2024/02/23 13:39:49;;;;;;;2.42;0.90;;;;;;;;;;5055651;28;20067;-60
2024/02/23 13:42:16;;;;;;;3.08;1.38;;;;;;;;;;5055473;28;20494;-61
2024/02/23 13:44:43;;;;;;;2.35;0.80;;;;;;;;;;5055499;28;20055;-61
2024/02/23 13:47:12;;;;;;;2.25;0.98;;;;;;;;;;5055396;28;20399;-61
2024/02/23 13:49:39;;;;;;;3.08;0.82;;;;;;;;;;5055407;28;20404;-61
2024/02/23 13:52:07;;;;;;;4.28;1.05;;;;;;;;;;5055085;28;20045;-61
2024/02/23 13:54:34;;;;;;;3.13;1.00;;;;;;;;;;5055024;28;20455;-61
2024/02/23 13:57:01;;;;;;;3.97;1.10;;;;;;;;;;5055065;28;20048;-62
2024/02/23 13:59:28;;;;;;;4.05;1.40;;;;;;;;;;5055304;28;20407;-61
2024/02/23 14:01:55;;;;;;;3.92;1.00;;;;;;;;;;5055011;28;20063;-62
2024/02/23 14:04:22;;;;;;;1.88;0.90;;;;;;;;;;5055116;28;20546;-61
2024/02/23 14:06:48;;;;;;;2.92;1.00;;;;;;;;;;5054943;28;20053;-61
2024/02/23 14:09:17;;;;;;;4.65;1.10;;;;;;;;;;5054609;28;20071;-60
2024/02/23 14:11:45;;;;;;;2.63;1.10;;;;;;;;;;5054765;28;20049;-60
2024/02/23 14:14:11;;;;;;;2.90;0.77;;;;;;;;;;5054899;28;20053;-60
2024/02/23 14:16:38;;;;;;;3.42;1.13;;;;;;;;;;5054797;28;20056;-60
2024/02/23 14:19:05;;;;;;;3.60;1.17;;;;;;;;;;5054798;28;20064;-61
2024/02/23 14:21:32;;;;;;;3.85;0.93;;;;;;;;;;5054518;28;20049;-61
2024/02/23 14:23:59;;;;;;;2.47;0.85;;;;;;;;;;5054618;28;20479;-61
2024/02/23 14:26:27;;;;;;;3.38;1.00;;;;;;;;;;5054708;28;20402;-61
2024/02/23 14:28:54;;;;;;;2.88;0.90;;;;;;;;;;5054143;28;20061;-62
2024/02/23 14:31:21;;;;;;;3.70;1.23;;;;;;;;;;5054399;28;20395;-60
2024/02/23 14:33:50;;;;;;;3.20;0.80;;;;;;;;;;5054430;28;20045;-60
2024/02/23 14:36:17;;;;;;;2.05;0.90;;;;;;;;;;5054181;28;20053;-61
2024/02/23 14:38:44;;;;;;;4.15;1.13;;;;;;;;;;5054709;28;20488;-61
2024/02/23 14:41:11;;;;;;;2.75;0.80;;;;;;;;;;5054200;28;20591;-61
2024/02/23 14:43:39;;;;;;;2.55;0.98;;;;;;;;;;5054653;28;20072;-61